sensor_id;sensor_type;location;lat;lon;timestamp;temperature;humidity
59923;DHT22;45778;51.142;3.732;2023-09-30T00:02:06;13.20;99.90
59923;DHT22;45778;51.142;3.732;2023-09-30T00:04:32;13.20;99.90
59923;DHT22;45778;51.142;3.732;2023-09-30T00:06:59;13.20;99.90
59923;DHT22;45778;51.142;3.732;2023-09-30T00:09:25;13.10;99.90
59923;DHT22;45778;51.142;3.732;2023-09-30T00:11:50;13.10;99.90
59923;DHT22;45778;51.142;3.732;2023-09-30T00:14:16;13.00;99.90
59923;DHT22;45778;51.142;3.732;2023-09-30T00:16:42;13.00;99.90
59923;DHT22;45778;51.142;3.732;2023-09-30T00:19:08;12.90;99.90
59923;DHT22;45778;51.142;3.732;2023-09-30T00:21:35;12.80;99.90
59923;DHT22;45778;51.142;3.732;2023-09-30T00:24:01;12.90;99.90
59923;DHT22;45778;51.142;3.732;2023-09-30T00:26:26;13.00;99.90
59923;DHT22;45778;51.142;3.732;2023-09-30T00:28:52;13.00;99.90
59923;DHT22;45778;51.142;3.732;2023-09-30T00:31:18;13.00;99.90
59923;DHT22;45778;51.142;3.732;2023-09-30T00:33:43;12.90;99.90
59923;DHT22;45778;51.142;3.732;2023-09-30T00:36:10;12.80;99.90
59923;DHT22;45778;51.142;3.732;2023-09-30T00:38:36;12.80;99.90
59923;DHT22;45778;51.142;3.732;2023-09-30T00:41:03;12.80;99.90
59923;DHT22;45778;51.142;3.732;2023-09-30T00:43:29;12.80;99.90
59923;DHT22;45778;51.142;3.732;2023-09-30T00:46:17;12.80;99.90
59923;DHT22;45778;51.142;3.732;2023-09-30T00:48:47;12.80;99.90
59923;DHT22;45778;51.142;3.732;2023-09-30T00:51:13;12.70;99.90
59923;DHT22;45778;51.142;3.732;2023-09-30T00:53:39;12.60;99.90
59923;DHT22;45778;51.142;3.732;2023-09-30T00:56:05;12.60;99.90
59923;DHT22;45778;51.142;3.732;2023-09-30T00:58:31;12.50;99.90
59923;DHT22;45778;51.142;3.732;2023-09-30T01:00:59;12.50;99.90
59923;DHT22;45778;51.142;3.732;2023-09-30T01:03:25;12.50;99.90
59923;DHT22;45778;51.142;3.732;2023-09-30T01:05:51;12.50;99.90
59923;DHT22;45778;51.142;3.732;2023-09-30T01:08:18;12.50;99.90
59923;DHT22;45778;51.142;3.732;2023-09-30T01:10:44;12.50;99.90
59923;DHT22;45778;51.142;3.732;2023-09-30T01:13:10;12.50;99.90
59923;DHT22;45778;51.142;3.732;2023-09-30T01:15:35;12.50;99.90
59923;DHT22;45778;51.142;3.732;2023-09-30T01:18:03;12.60;99.90
59923;DHT22;45778;51.142;3.732;2023-09-30T01:20:28;12.60;99.90
59923;DHT22;45778;51.142;3.732;2023-09-30T01:22:56;12.60;99.90
59923;DHT22;45778;51.142;3.732;2023-09-30T01:25:22;12.50;99.90
59923;DHT22;45778;51.142;3.732;2023-09-30T01:27:48;12.50;99.90
59923;DHT22;45778;51.142;3.732;2023-09-30T01:30:13;12.60;99.90
59923;DHT22;45778;51.142;3.732;2023-09-30T01:32:40;12.60;99.90
59923;DHT22;45778;51.142;3.732;2023-09-30T01:35:06;12.60;99.90
59923;DHT22;45778;51.142;3.732;2023-09-30T01:37:32;12.60;99.90
59923;DHT22;45778;51.142;3.732;2023-09-30T01:39:57;12.60;99.90
59923;DHT22;45778;51.142;3.732;2023-09-30T01:42:23;12.60;99.90
59923;DHT22;45778;51.142;3.732;2023-09-30T01:44:49;12.50;99.90
59923;DHT22;45778;51.142;3.732;2023-09-30T01:47:14;12.40;99.90
59923;DHT22;45778;51.142;3.732;2023-09-30T01:49:40;12.30;99.90
59923;DHT22;45778;51.142;3.732;2023-09-30T01:52:06;12.40;99.90
59923;DHT22;45778;51.142;3.732;2023-09-30T01:54:31;12.40;99.90
59923;DHT22;45778;51.142;3.732;2023-09-30T01:56:57;12.40;99.90
59923;DHT22;45778;51.142;3.732;2023-09-30T01:59:24;12.30;99.90
59923;DHT22;45778;51.142;3.732;2023-09-30T02:01:50;12.30;99.90
59923;DHT22;45778;51.142;3.732;2023-09-30T02:04:15;12.30;99.90
59923;DHT22;45778;51.142;3.732;2023-09-30T02:06:41;12.30;99.90
59923;DHT22;45778;51.142;3.732;2023-09-30T02:09:07;12.40;99.90
59923;DHT22;45778;51.142;3.732;2023-09-30T02:11:35;12.30;99.90
59923;DHT22;45778;51.142;3.732;2023-09-30T02:14:02;12.40;99.90
59923;DHT22;45778;51.142;3.732;2023-09-30T02:16:28;12.40;99.90
59923;DHT22;45778;51.142;3.732;2023-09-30T02:18:55;12.40;99.90
59923;DHT22;45778;51.142;3.732;2023-09-30T02:21:20;12.50;99.90
59923;DHT22;45778;51.142;3.732;2023-09-30T02:23:47;12.50;99.90
59923;DHT22;45778;51.142;3.732;2023-09-30T02:26:20;12.40;99.90
59923;DHT22;45778;51.142;3.732;2023-09-30T02:28:47;12.40;99.90
59923;DHT22;45778;51.142;3.732;2023-09-30T02:31:13;12.40;99.90
59923;DHT22;45778;51.142;3.732;2023-09-30T02:33:38;12.50;99.90
59923;DHT22;45778;51.142;3.732;2023-09-30T02:36:08;12.60;99.90
59923;DHT22;45778;51.142;3.732;2023-09-30T02:38:34;12.60;99.90
59923;DHT22;45778;51.142;3.732;2023-09-30T02:41:02;12.60;99.90
59923;DHT22;45778;51.142;3.732;2023-09-30T02:43:28;12.60;99.90
59923;DHT22;45778;51.142;3.732;2023-09-30T02:45:54;12.60;99.90
59923;DHT22;45778;51.142;3.732;2023-09-30T02:48:20;12.60;99.90
59923;DHT22;45778;51.142;3.732;2023-09-30T02:50:45;12.50;99.90
59923;DHT22;45778;51.142;3.732;2023-09-30T02:53:12;12.50;99.90
59923;DHT22;45778;51.142;3.732;2023-09-30T02:55:41;12.50;99.90
59923;DHT22;45778;51.142;3.732;2023-09-30T02:58:11;12.40;99.90
59923;DHT22;45778;51.142;3.732;2023-09-30T03:00:36;12.50;99.90
59923;DHT22;45778;51.142;3.732;2023-09-30T03:03:03;12.50;99.90
59923;DHT22;45778;51.142;3.732;2023-09-30T03:05:30;12.50;99.90
59923;DHT22;45778;51.142;3.732;2023-09-30T03:07:57;12.50;99.90
59923;DHT22;45778;51.142;3.732;2023-09-30T03:10:23;12.40;99.90
59923;DHT22;45778;51.142;3.732;2023-09-30T03:12:56;12.40;99.90
59923;DHT22;45778;51.142;3.732;2023-09-30T03:15:27;12.30;99.90
59923;DHT22;45778;51.142;3.732;2023-09-30T03:17:53;12.20;99.90
59923;DHT22;45778;51.142;3.732;2023-09-30T03:20:21;12.20;99.90
59923;DHT22;45778;51.142;3.732;2023-09-30T03:22:47;12.10;99.90
59923;DHT22;45778;51.142;3.732;2023-09-30T03:25:16;12.10;99.90
59923;DHT22;45778;51.142;3.732;2023-09-30T03:27:43;12.10;99.90
59923;DHT22;45778;51.142;3.732;2023-09-30T03:30:09;12.10;99.90
59923;DHT22;45778;51.142;3.732;2023-09-30T03:32:37;12.10;99.90
59923;DHT22;45778;51.142;3.732;2023-09-30T03:35:09;12.20;99.90
59923;DHT22;45778;51.142;3.732;2023-09-30T03:37:45;12.20;99.90
59923;DHT22;45778;51.142;3.732;2023-09-30T03:40:12;12.20;99.90
59923;DHT22;45778;51.142;3.732;2023-09-30T03:42:45;12.10;99.90
59923;DHT22;45778;51.142;3.732;2023-09-30T03:45:12;12.20;99.90
59923;DHT22;45778;51.142;3.732;2023-09-30T03:47:40;12.10;99.90
59923;DHT22;45778;51.142;3.732;2023-09-30T03:50:06;12.10;99.90
59923;DHT22;45778;51.142;3.732;2023-09-30T03:52:38;12.20;99.90
59923;DHT22;45778;51.142;3.732;2023-09-30T03:55:04;12.10;99.90
59923;DHT22;45778;51.142;3.732;2023-09-30T03:57:33;12.20;99.90
59923;DHT22;45778;51.142;3.732;2023-09-30T04:00:00;12.20;99.90
59923;DHT22;45778;51.142;3.732;2023-09-30T04:02:26;12.30;99.90
59923;DHT22;45778;51.142;3.732;2023-09-30T04:04:53;12.10;99.90
59923;DHT22;45778;51.142;3.732;2023-09-30T04:07:21;12.10;99.90
59923;DHT22;45778;51.142;3.732;2023-09-30T04:09:48;12.00;99.90
59923;DHT22;45778;51.142;3.732;2023-09-30T04:12:14;12.10;99.90
59923;DHT22;45778;51.142;3.732;2023-09-30T04:14:39;12.20;99.90
59923;DHT22;45778;51.142;3.732;2023-09-30T04:17:05;12.20;99.90
59923;DHT22;45778;51.142;3.732;2023-09-30T04:19:31;12.20;99.90
59923;DHT22;45778;51.142;3.732;2023-09-30T04:21:57;12.10;99.90
59923;DHT22;45778;51.142;3.732;2023-09-30T04:24:23;12.10;99.90
59923;DHT22;45778;51.142;3.732;2023-09-30T04:26:49;11.90;99.90
59923;DHT22;45778;51.142;3.732;2023-09-30T04:29:17;11.90;99.90
59923;DHT22;45778;51.142;3.732;2023-09-30T04:31:43;12.00;99.90
59923;DHT22;45778;51.142;3.732;2023-09-30T04:34:10;11.90;99.90
59923;DHT22;45778;51.142;3.732;2023-09-30T04:36:35;11.80;99.90
59923;DHT22;45778;51.142;3.732;2023-09-30T04:39:02;11.90;99.90
59923;DHT22;45778;51.142;3.732;2023-09-30T04:41:29;11.90;99.90
59923;DHT22;45778;51.142;3.732;2023-09-30T04:43:54;11.90;99.90
59923;DHT22;45778;51.142;3.732;2023-09-30T04:46:20;11.90;99.90
59923;DHT22;45778;51.142;3.732;2023-09-30T04:48:48;12.00;99.90
59923;DHT22;45778;51.142;3.732;2023-09-30T04:51:14;11.90;99.90
59923;DHT22;45778;51.142;3.732;2023-09-30T04:53:43;11.90;99.90
59923;DHT22;45778;51.142;3.732;2023-09-30T04:56:10;11.80;99.90
59923;DHT22;45778;51.142;3.732;2023-09-30T04:58:36;11.80;99.90
59923;DHT22;45778;51.142;3.732;2023-09-30T05:01:01;11.90;99.90
59923;DHT22;45778;51.142;3.732;2023-09-30T05:03:27;11.90;99.90
59923;DHT22;45778;51.142;3.732;2023-09-30T05:05:53;12.00;99.90
59923;DHT22;45778;51.142;3.732;2023-09-30T05:08:22;11.90;99.90
59923;DHT22;45778;51.142;3.732;2023-09-30T05:10:47;11.80;99.90
59923;DHT22;45778;51.142;3.732;2023-09-30T05:13:13;11.80;99.90
59923;DHT22;45778;51.142;3.732;2023-09-30T05:15:39;11.80;99.90
59923;DHT22;45778;51.142;3.732;2023-09-30T05:18:07;11.70;99.90
59923;DHT22;45778;51.142;3.732;2023-09-30T05:20:34;11.70;99.90
59923;DHT22;45778;51.142;3.732;2023-09-30T05:23:02;11.70;99.90
59923;DHT22;45778;51.142;3.732;2023-09-30T05:25:28;11.70;99.90
59923;DHT22;45778;51.142;3.732;2023-09-30T05:27:54;11.70;99.90
59923;DHT22;45778;51.142;3.732;2023-09-30T05:30:20;11.70;99.90
59923;DHT22;45778;51.142;3.732;2023-09-30T05:32:46;11.70;99.90
59923;DHT22;45778;51.142;3.732;2023-09-30T05:35:12;11.60;99.90
59923;DHT22;45778;51.142;3.732;2023-09-30T05:37:42;11.50;99.90
59923;DHT22;45778;51.142;3.732;2023-09-30T05:40:09;11.60;99.90
59923;DHT22;45778;51.142;3.732;2023-09-30T05:42:59;11.60;99.90
59923;DHT22;45778;51.142;3.732;2023-09-30T05:45:27;11.70;99.90
59923;DHT22;45778;51.142;3.732;2023-09-30T05:47:53;11.70;99.90
59923;DHT22;45778;51.142;3.732;2023-09-30T05:50:20;11.70;99.90
59923;DHT22;45778;51.142;3.732;2023-09-30T05:52:53;11.70;99.90
59923;DHT22;45778;51.142;3.732;2023-09-30T05:55:19;11.70;99.90
59923;DHT22;45778;51.142;3.732;2023-09-30T05:57:51;11.80;99.90
59923;DHT22;45778;51.142;3.732;2023-09-30T06:00:18;11.80;99.90
59923;DHT22;45778;51.142;3.732;2023-09-30T06:02:49;11.90;99.90
59923;DHT22;45778;51.142;3.732;2023-09-30T06:05:15;11.80;99.90
59923;DHT22;45778;51.142;3.732;2023-09-30T06:07:48;11.80;99.90
59923;DHT22;45778;51.142;3.732;2023-09-30T06:10:14;11.80;99.90
59923;DHT22;45778;51.142;3.732;2023-09-30T06:12:44;11.70;99.90
59923;DHT22;45778;51.142;3.732;2023-09-30T06:15:12;11.70;99.90
59923;DHT22;45778;51.142;3.732;2023-09-30T06:17:38;11.70;99.90
59923;DHT22;45778;51.142;3.732;2023-09-30T06:20:05;11.60;99.90
59923;DHT22;45778;51.142;3.732;2023-09-30T06:22:44;11.80;99.90
59923;DHT22;45778;51.142;3.732;2023-09-30T06:25:15;11.80;99.90
59923;DHT22;45778;51.142;3.732;2023-09-30T06:27:45;11.80;99.90
59923;DHT22;45778;51.142;3.732;2023-09-30T06:30:12;11.80;99.90
59923;DHT22;45778;51.142;3.732;2023-09-30T06:32:39;11.80;99.90
59923;DHT22;45778;51.142;3.732;2023-09-30T06:35:06;11.80;99.90
59923;DHT22;45778;51.142;3.732;2023-09-30T06:37:35;11.90;99.90
59923;DHT22;45778;51.142;3.732;2023-09-30T06:40:00;12.00;99.90
59923;DHT22;45778;51.142;3.732;2023-09-30T06:42:29;12.00;99.90
59923;DHT22;45778;51.142;3.732;2023-09-30T06:44:55;12.00;99.90
59923;DHT22;45778;51.142;3.732;2023-09-30T06:47:20;12.00;99.90
59923;DHT22;45778;51.142;3.732;2023-09-30T06:49:47;12.10;99.90
59923;DHT22;45778;51.142;3.732;2023-09-30T06:52:13;12.00;99.90
59923;DHT22;45778;51.142;3.732;2023-09-30T06:54:38;12.10;99.90
59923;DHT22;45778;51.142;3.732;2023-09-30T06:57:04;12.10;99.90
59923;DHT22;45778;51.142;3.732;2023-09-30T06:59:32;12.20;99.90
59923;DHT22;45778;51.142;3.732;2023-09-30T07:01:58;12.20;99.90
59923;DHT22;45778;51.142;3.732;2023-09-30T07:04:24;12.40;99.90
59923;DHT22;45778;51.142;3.732;2023-09-30T07:06:52;12.40;99.90
59923;DHT22;45778;51.142;3.732;2023-09-30T07:09:18;12.60;99.90
59923;DHT22;45778;51.142;3.732;2023-09-30T07:11:45;12.60;99.90
59923;DHT22;45778;51.142;3.732;2023-09-30T07:14:11;12.60;99.90
59923;DHT22;45778;51.142;3.732;2023-09-30T07:16:37;12.60;99.90
59923;DHT22;45778;51.142;3.732;2023-09-30T07:19:02;12.70;99.90
59923;DHT22;45778;51.142;3.732;2023-09-30T07:21:28;12.70;99.90
59923;DHT22;45778;51.142;3.732;2023-09-30T07:23:54;12.80;99.90
59923;DHT22;45778;51.142;3.732;2023-09-30T07:26:27;12.80;99.90
59923;DHT22;45778;51.142;3.732;2023-09-30T07:28:53;12.80;99.90
59923;DHT22;45778;51.142;3.732;2023-09-30T07:31:20;12.90;99.90
59923;DHT22;45778;51.142;3.732;2023-09-30T07:33:45;13.00;99.90
59923;DHT22;45778;51.142;3.732;2023-09-30T07:36:13;13.00;99.90
59923;DHT22;45778;51.142;3.732;2023-09-30T07:38:39;13.20;99.90
59923;DHT22;45778;51.142;3.732;2023-09-30T07:41:05;13.20;99.90
59923;DHT22;45778;51.142;3.732;2023-09-30T07:43:31;13.30;99.90
59923;DHT22;45778;51.142;3.732;2023-09-30T07:45:57;13.40;99.90
59923;DHT22;45778;51.142;3.732;2023-09-30T07:48:22;13.60;99.90
59923;DHT22;45778;51.142;3.732;2023-09-30T07:50:50;13.70;99.90
59923;DHT22;45778;51.142;3.732;2023-09-30T07:53:16;13.90;99.90
59923;DHT22;45778;51.142;3.732;2023-09-30T07:55:41;13.80;99.90
59923;DHT22;45778;51.142;3.732;2023-09-30T07:58:07;13.70;99.90
59923;DHT22;45778;51.142;3.732;2023-09-30T08:00:33;13.80;99.90
59923;DHT22;45778;51.142;3.732;2023-09-30T08:02:59;14.00;99.90
59923;DHT22;45778;51.142;3.732;2023-09-30T08:05:26;14.00;99.90
59923;DHT22;45778;51.142;3.732;2023-09-30T08:07:54;14.10;99.90
59923;DHT22;45778;51.142;3.732;2023-09-30T08:10:20;14.10;99.90
59923;DHT22;45778;51.142;3.732;2023-09-30T08:12:45;14.30;99.90
59923;DHT22;45778;51.142;3.732;2023-09-30T08:15:13;14.50;99.90
59923;DHT22;45778;51.142;3.732;2023-09-30T08:17:40;14.70;99.90
59923;DHT22;45778;51.142;3.732;2023-09-30T08:20:06;14.60;99.90
59923;DHT22;45778;51.142;3.732;2023-09-30T08:22:32;14.80;99.90
59923;DHT22;45778;51.142;3.732;2023-09-30T08:24:57;14.80;99.90
59923;DHT22;45778;51.142;3.732;2023-09-30T08:27:24;14.90;99.90
59923;DHT22;45778;51.142;3.732;2023-09-30T08:29:50;14.90;99.90
59923;DHT22;45778;51.142;3.732;2023-09-30T08:32:15;14.90;99.90
59923;DHT22;45778;51.142;3.732;2023-09-30T08:34:41;14.80;99.90
59923;DHT22;45778;51.142;3.732;2023-09-30T08:37:07;14.60;99.90
59923;DHT22;45778;51.142;3.732;2023-09-30T08:39:38;14.80;99.90
59923;DHT22;45778;51.142;3.732;2023-09-30T08:42:09;14.90;99.90
59923;DHT22;45778;51.142;3.732;2023-09-30T08:44:37;15.00;99.90
59923;DHT22;45778;51.142;3.732;2023-09-30T08:47:05;15.30;99.90
59923;DHT22;45778;51.142;3.732;2023-09-30T08:49:34;15.50;99.90
59923;DHT22;45778;51.142;3.732;2023-09-30T08:52:02;15.70;99.90
59923;DHT22;45778;51.142;3.732;2023-09-30T08:54:29;15.70;99.90
59923;DHT22;45778;51.142;3.732;2023-09-30T08:56:56;15.90;99.90
59923;DHT22;45778;51.142;3.732;2023-09-30T08:59:23;16.00;99.90
59923;DHT22;45778;51.142;3.732;2023-09-30T09:01:51;16.00;99.90
59923;DHT22;45778;51.142;3.732;2023-09-30T09:04:17;16.00;99.90
59923;DHT22;45778;51.142;3.732;2023-09-30T09:06:43;16.00;99.90
59923;DHT22;45778;51.142;3.732;2023-09-30T09:09:18;16.10;99.90
59923;DHT22;45778;51.142;3.732;2023-09-30T09:11:45;16.10;99.90
59923;DHT22;45778;51.142;3.732;2023-09-30T09:14:11;16.20;99.90
59923;DHT22;45778;51.142;3.732;2023-09-30T09:16:48;16.30;99.90
59923;DHT22;45778;51.142;3.732;2023-09-30T09:19:15;16.30;99.90
59923;DHT22;45778;51.142;3.732;2023-09-30T09:21:55;16.40;99.90
59923;DHT22;45778;51.142;3.732;2023-09-30T09:24:32;16.60;99.90
59923;DHT22;45778;51.142;3.732;2023-09-30T09:27:11;16.80;99.90
59923;DHT22;45778;51.142;3.732;2023-09-30T09:29:38;16.70;99.90
59923;DHT22;45778;51.142;3.732;2023-09-30T09:32:12;16.70;99.90
59923;DHT22;45778;51.142;3.732;2023-09-30T09:34:38;16.80;99.90
59923;DHT22;45778;51.142;3.732;2023-09-30T09:37:17;16.90;99.90
59923;DHT22;45778;51.142;3.732;2023-09-30T09:39:53;17.00;99.90
59923;DHT22;45778;51.142;3.732;2023-09-30T09:42:26;17.00;99.90
59923;DHT22;45778;51.142;3.732;2023-09-30T09:44:57;16.90;99.90
59923;DHT22;45778;51.142;3.732;2023-09-30T09:47:23;16.70;99.90
59923;DHT22;45778;51.142;3.732;2023-09-30T09:49:53;16.60;99.90
59923;DHT22;45778;51.142;3.732;2023-09-30T09:52:20;16.60;99.90
59923;DHT22;45778;51.142;3.732;2023-09-30T09:54:46;16.50;99.90
59923;DHT22;45778;51.142;3.732;2023-09-30T09:57:12;16.60;99.90
59923;DHT22;45778;51.142;3.732;2023-09-30T09:59:39;17.00;99.90
59923;DHT22;45778;51.142;3.732;2023-09-30T10:02:10;17.20;99.90
59923;DHT22;45778;51.142;3.732;2023-09-30T10:04:38;17.20;99.90
59923;DHT22;45778;51.142;3.732;2023-09-30T10:07:04;17.20;99.90
59923;DHT22;45778;51.142;3.732;2023-09-30T10:09:34;17.30;99.90
59923;DHT22;45778;51.142;3.732;2023-09-30T10:12:01;17.20;99.90
59923;DHT22;45778;51.142;3.732;2023-09-30T10:14:33;17.10;99.90
59923;DHT22;45778;51.142;3.732;2023-09-30T10:16:59;17.20;99.90
59923;DHT22;45778;51.142;3.732;2023-09-30T10:19:25;17.40;99.90
59923;DHT22;45778;51.142;3.732;2023-09-30T10:24:43;17.70;99.90
59923;DHT22;45778;51.142;3.732;2023-09-30T10:29:47;18.10;99.90
59923;DHT22;45778;51.142;3.732;2023-09-30T10:32:13;18.30;99.90
59923;DHT22;45778;51.142;3.732;2023-09-30T10:34:47;18.50;99.90
59923;DHT22;45778;51.142;3.732;2023-09-30T10:37:23;18.30;99.90
59923;DHT22;45778;51.142;3.732;2023-09-30T10:39:57;18.10;99.90
59923;DHT22;45778;51.142;3.732;2023-09-30T10:42:48;18.10;99.90
59923;DHT22;45778;51.142;3.732;2023-09-30T10:50:57;18.50;99.90
59923;DHT22;45778;51.142;3.732;2023-09-30T10:53:25;18.70;99.90
59923;DHT22;45778;51.142;3.732;2023-09-30T10:56:00;18.90;99.90
59923;DHT22;45778;51.142;3.732;2023-09-30T10:58:44;19.00;99.90
59923;DHT22;45778;51.142;3.732;2023-09-30T11:01:15;19.10;99.90
59923;DHT22;45778;51.142;3.732;2023-09-30T11:03:42;19.00;99.90
59923;DHT22;45778;51.142;3.732;2023-09-30T11:06:11;18.80;99.90
59923;DHT22;45778;51.142;3.732;2023-09-30T11:08:54;18.90;99.90
59923;DHT22;45778;51.142;3.732;2023-09-30T11:11:38;18.90;99.90
59923;DHT22;45778;51.142;3.732;2023-09-30T11:14:29;18.90;99.90
59923;DHT22;45778;51.142;3.732;2023-09-30T11:16:57;19.00;99.90
59923;DHT22;45778;51.142;3.732;2023-09-30T11:19:23;19.00;99.90
59923;DHT22;45778;51.142;3.732;2023-09-30T11:21:54;19.10;99.90
59923;DHT22;45778;51.142;3.732;2023-09-30T11:24:24;19.20;99.90
59923;DHT22;45778;51.142;3.732;2023-09-30T11:26:53;19.10;99.90
59923;DHT22;45778;51.142;3.732;2023-09-30T11:29:21;19.10;99.90
59923;DHT22;45778;51.142;3.732;2023-09-30T11:31:48;19.50;99.90
59923;DHT22;45778;51.142;3.732;2023-09-30T11:34:18;19.70;99.90
59923;DHT22;45778;51.142;3.732;2023-09-30T11:36:52;19.60;99.90
59923;DHT22;45778;51.142;3.732;2023-09-30T11:39:29;19.70;99.90
59923;DHT22;45778;51.142;3.732;2023-09-30T11:41:56;19.90;99.90
59923;DHT22;45778;51.142;3.732;2023-09-30T11:44:26;19.80;99.90
59923;DHT22;45778;51.142;3.732;2023-09-30T11:46:55;20.00;99.90
59923;DHT22;45778;51.142;3.732;2023-09-30T11:49:52;20.30;99.90
59923;DHT22;45778;51.142;3.732;2023-09-30T11:52:26;20.50;99.90
59923;DHT22;45778;51.142;3.732;2023-09-30T11:54:52;20.60;99.90
59923;DHT22;45778;51.142;3.732;2023-09-30T11:57:19;21.10;99.90
59923;DHT22;45778;51.142;3.732;2023-09-30T11:59:45;21.40;99.90
59923;DHT22;45778;51.142;3.732;2023-09-30T12:02:12;21.30;99.90
59923;DHT22;45778;51.142;3.732;2023-09-30T12:04:40;21.80;99.90
59923;DHT22;45778;51.142;3.732;2023-09-30T12:07:06;22.10;99.90
59923;DHT22;45778;51.142;3.732;2023-09-30T12:09:34;21.60;99.90
59923;DHT22;45778;51.142;3.732;2023-09-30T12:12:03;21.60;99.90
59923;DHT22;45778;51.142;3.732;2023-09-30T12:14:28;21.40;99.90
59923;DHT22;45778;51.142;3.732;2023-09-30T12:16:57;21.80;99.90
59923;DHT22;45778;51.142;3.732;2023-09-30T12:19:23;22.00;99.90
59923;DHT22;45778;51.142;3.732;2023-09-30T12:21:50;21.40;99.90
59923;DHT22;45778;51.142;3.732;2023-09-30T12:24:18;21.30;99.90
59923;DHT22;45778;51.142;3.732;2023-09-30T12:26:48;21.30;99.90
59923;DHT22;45778;51.142;3.732;2023-09-30T12:29:18;21.20;99.90
59923;DHT22;45778;51.142;3.732;2023-09-30T12:31:48;21.50;99.90
59923;DHT22;45778;51.142;3.732;2023-09-30T12:34:14;21.90;99.90
59923;DHT22;45778;51.142;3.732;2023-09-30T12:36:41;21.60;99.90
59923;DHT22;45778;51.142;3.732;2023-09-30T12:39:07;21.30;99.90
59923;DHT22;45778;51.142;3.732;2023-09-30T12:41:43;21.80;99.90
59923;DHT22;45778;51.142;3.732;2023-09-30T12:44:10;23.40;99.00
59923;DHT22;45778;51.142;3.732;2023-09-30T12:46:36;23.10;97.00
59923;DHT22;45778;51.142;3.732;2023-09-30T12:49:08;23.00;96.70
59923;DHT22;45778;51.142;3.732;2023-09-30T12:51:34;23.20;96.10
59923;DHT22;45778;51.142;3.732;2023-09-30T12:54:01;23.60;94.80
59923;DHT22;45778;51.142;3.732;2023-09-30T12:56:26;24.80;93.40
59923;DHT22;45778;51.142;3.732;2023-09-30T12:58:55;25.40;93.00
59923;DHT22;45778;51.142;3.732;2023-09-30T13:01:21;25.50;91.50
59923;DHT22;45778;51.142;3.732;2023-09-30T13:03:48;25.60;90.90
59923;DHT22;45778;51.142;3.732;2023-09-30T13:06:14;26.30;89.10
59923;DHT22;45778;51.142;3.732;2023-09-30T13:08:41;26.80;88.10
59923;DHT22;45778;51.142;3.732;2023-09-30T13:11:07;26.70;89.30
59923;DHT22;45778;51.142;3.732;2023-09-30T13:13:33;26.50;90.10
59923;DHT22;45778;51.142;3.732;2023-09-30T13:16:01;26.60;89.70
59923;DHT22;45778;51.142;3.732;2023-09-30T13:18:27;26.90;87.30
59923;DHT22;45778;51.142;3.732;2023-09-30T13:20:52;26.50;85.80
59923;DHT22;45778;51.142;3.732;2023-09-30T13:23:19;26.30;88.50
59923;DHT22;45778;51.142;3.732;2023-09-30T13:25:45;25.50;89.70
59923;DHT22;45778;51.142;3.732;2023-09-30T13:28:10;25.60;89.00
59923;DHT22;45778;51.142;3.732;2023-09-30T13:30:36;26.00;88.80
59923;DHT22;45778;51.142;3.732;2023-09-30T13:33:02;25.60;90.00
59923;DHT22;45778;51.142;3.732;2023-09-30T13:35:28;25.60;90.30
59923;DHT22;45778;51.142;3.732;2023-09-30T13:37:54;25.90;90.00
59923;DHT22;45778;51.142;3.732;2023-09-30T13:40:19;25.90;89.90
59923;DHT22;45778;51.142;3.732;2023-09-30T13:42:46;26.00;89.50
59923;DHT22;45778;51.142;3.732;2023-09-30T13:45:12;26.40;89.00
59923;DHT22;45778;51.142;3.732;2023-09-30T13:47:38;26.50;88.60
59923;DHT22;45778;51.142;3.732;2023-09-30T13:50:04;26.90;86.50
59923;DHT22;45778;51.142;3.732;2023-09-30T13:52:33;27.00;85.10
59923;DHT22;45778;51.142;3.732;2023-09-30T13:54:59;27.40;83.50
59923;DHT22;45778;51.142;3.732;2023-09-30T13:57:25;27.80;84.20
59923;DHT22;45778;51.142;3.732;2023-09-30T13:59:50;26.70;82.80
59923;DHT22;45778;51.142;3.732;2023-09-30T14:02:16;27.50;84.10
59923;DHT22;45778;51.142;3.732;2023-09-30T14:04:42;27.90;83.10
59923;DHT22;45778;51.142;3.732;2023-09-30T14:07:07;27.30;82.70
59923;DHT22;45778;51.142;3.732;2023-09-30T14:09:33;28.10;80.00
59923;DHT22;45778;51.142;3.732;2023-09-30T14:11:59;29.00;80.50
59923;DHT22;45778;51.142;3.732;2023-09-30T14:14:25;28.80;79.70
59923;DHT22;45778;51.142;3.732;2023-09-30T14:16:51;28.10;79.00
59923;DHT22;45778;51.142;3.732;2023-09-30T14:19:17;28.10;78.80
59923;DHT22;45778;51.142;3.732;2023-09-30T14:21:43;28.40;78.40
59923;DHT22;45778;51.142;3.732;2023-09-30T14:24:09;28.70;78.30
59923;DHT22;45778;51.142;3.732;2023-09-30T14:26:35;27.60;80.90
59923;DHT22;45778;51.142;3.732;2023-09-30T14:29:01;27.20;81.20
59923;DHT22;45778;51.142;3.732;2023-09-30T14:31:27;26.60;80.30
59923;DHT22;45778;51.142;3.732;2023-09-30T14:33:52;27.60;79.00
59923;DHT22;45778;51.142;3.732;2023-09-30T14:36:18;25.90;82.60
59923;DHT22;45778;51.142;3.732;2023-09-30T14:38:45;24.60;85.30
59923;DHT22;45778;51.142;3.732;2023-09-30T14:41:11;23.40;89.20
59923;DHT22;45778;51.142;3.732;2023-09-30T14:43:40;22.60;91.20
59923;DHT22;45778;51.142;3.732;2023-09-30T14:46:06;22.20;92.60
59923;DHT22;45778;51.142;3.732;2023-09-30T14:48:31;21.90;92.60
59923;DHT22;45778;51.142;3.732;2023-09-30T14:50:57;21.70;93.30
59923;DHT22;45778;51.142;3.732;2023-09-30T14:53:23;22.20;93.80
59923;DHT22;45778;51.142;3.732;2023-09-30T14:55:50;22.30;92.80
59923;DHT22;45778;51.142;3.732;2023-09-30T14:58:16;22.10;93.00
59923;DHT22;45778;51.142;3.732;2023-09-30T15:00:41;22.20;93.20
59923;DHT22;45778;51.142;3.732;2023-09-30T15:03:07;21.90;93.80
59923;DHT22;45778;51.142;3.732;2023-09-30T15:05:33;22.00;94.40
59923;DHT22;45778;51.142;3.732;2023-09-30T15:08:00;22.00;93.90
59923;DHT22;45778;51.142;3.732;2023-09-30T15:10:28;21.90;94.70
59923;DHT22;45778;51.142;3.732;2023-09-30T15:12:55;22.30;94.10
59923;DHT22;45778;51.142;3.732;2023-09-30T15:15:21;22.60;94.10
59923;DHT22;45778;51.142;3.732;2023-09-30T15:17:46;23.60;92.50
59923;DHT22;45778;51.142;3.732;2023-09-30T15:20:12;24.10;91.40
59923;DHT22;45778;51.142;3.732;2023-09-30T15:22:38;24.40;90.80
59923;DHT22;45778;51.142;3.732;2023-09-30T15:25:04;24.10;90.40
59923;DHT22;45778;51.142;3.732;2023-09-30T15:27:30;24.20;90.40
59923;DHT22;45778;51.142;3.732;2023-09-30T15:29:59;24.60;90.10
59923;DHT22;45778;51.142;3.732;2023-09-30T15:32:25;24.20;90.80
59923;DHT22;45778;51.142;3.732;2023-09-30T15:34:51;24.60;89.90
59923;DHT22;45778;51.142;3.732;2023-09-30T15:37:16;25.10;90.00
59923;DHT22;45778;51.142;3.732;2023-09-30T15:39:42;25.70;88.80
59923;DHT22;45778;51.142;3.732;2023-09-30T15:42:08;25.20;90.00
59923;DHT22;45778;51.142;3.732;2023-09-30T15:44:35;24.20;90.20